Time;durP1;ratioP1;P1;durP2;ratioP2;P2;SDS_P1;SDS_P2;PMS_P1;PMS_P2;Temp;Humidity;BMP_temperature;BMP_pressure;BME280_temperature;BME280_humidity;BME280_pressure;Samples;Min_cycle;Max_cycle;Signal;HPM_P1;HPM_P2
2023/03/23 00:01:13;;;;;;;17.10;8.27;;;;;;;9.15;100.00;100520.47;5031626;28;20033;-73
2023/03/23 00:03:40;;;;;;;14.35;8.50;;;;;;;9.05;100.00;100508.88;5031654;28;20032;-79
2023/03/23 00:06:07;;;;;;;14.35;8.40;;;;;;;8.90;100.00;100498.78;5031832;28;20407;-75
2023/03/23 00:08:46;;;;;;;17.80;8.60;;;;;;;8.93;100.00;100517.75;5031976;28;20478;-75
2023/03/23 00:11:14;;;;;;;14.40;8.50;;;;;;;8.80;100.00;100503.44;5032024;28;20116;-74
2023/03/23 00:13:41;;;;;;;14.52;8.57;;;;;;;8.83;100.00;100499.31;5032976;28;20029;-73
2023/03/23 00:16:16;;;;;;;21.23;9.73;;;;;;;8.89;100.00;100503.88;5031327;28;20103;-73
2023/03/23 00:18:45;;;;;;;16.52;9.27;;;;;;;8.90;100.00;100503.06;5030940;28;20030;-73
2023/03/23 00:21:11;;;;;;;16.85;10.38;;;;;;;8.89;100.00;100499.59;5030469;28;20045;-75
2023/03/23 00:23:38;;;;;;;16.73;10.43;;;;;;;8.91;100.00;100509.97;5031090;28;20036;-71
2023/03/23 00:26:03;;;;;;;16.33;11.48;;;;;;;8.84;100.00;100511.38;5031711;28;20072;-71
2023/03/23 00:28:29;;;;;;;18.75;11.90;;;;;;;8.81;100.00;100508.69;5031354;28;20069;-71
2023/03/23 00:30:59;;;;;;;17.38;10.63;;;;;;;8.80;100.00;100519.78;5031748;28;20025;-72
2023/03/23 00:33:27;;;;;;;16.65;10.77;;;;;;;8.78;100.00;100507.66;5031342;28;20036;-72
2023/03/23 00:35:54;;;;;;;16.08;10.15;;;;;;;8.67;100.00;100499.44;5032029;28;20033;-72
2023/03/23 00:38:20;;;;;;;13.88;8.95;;;;;;;8.61;100.00;100492.34;5031338;28;20033;-71
2023/03/23 00:40:47;;;;;;;15.05;9.75;;;;;;;8.74;100.00;100512.66;5031188;28;20043;-72
2023/03/23 00:43:16;;;;;;;12.48;8.85;;;;;;;8.76;100.00;100505.03;5028935;28;20076;-71
2023/03/23 00:45:44;;;;;;;13.98;8.88;;;;;;;8.59;100.00;100509.41;5031882;28;20394;-71
2023/03/23 00:48:13;;;;;;;13.63;8.95;;;;;;;8.50;100.00;100504.72;5030254;28;20033;-71
2023/03/23 00:50:39;;;;;;;12.70;8.73;;;;;;;8.50;100.00;100499.56;5031186;28;20502;-70
2023/03/23 00:53:05;;;;;;;11.38;8.15;;;;;;;8.55;100.00;100499.78;5030847;28;20025;-71
2023/03/23 00:55:30;;;;;;;11.00;7.88;;;;;;;8.63;100.00;100502.69;5031245;28;20103;-71
2023/03/23 00:57:56;;;;;;;12.95;8.07;;;;;;;8.68;100.00;100498.63;5030750;28;20479;-71
2023/03/23 01:00:22;;;;;;;11.85;7.60;;;;;;;8.70;100.00;100481.59;5030950;28;20032;-72
2023/03/23 01:02:51;;;;;;;12.68;7.80;;;;;;;8.76;100.00;100496.41;5031314;28;20061;-71
2023/03/23 01:05:17;;;;;;;14.50;7.70;;;;;;;8.39;100.00;100457.00;5030706;28;20495;-71
2023/03/23 01:07:44;;;;;;;12.93;8.00;;;;;;;8.65;100.00;100501.06;5030312;28;20051;-71
2023/03/23 01:10:12;;;;;;;11.18;7.28;;;;;;;8.32;100.00;100463.53;5030725;28;20018;-71
2023/03/23 01:12:38;;;;;;;9.95;7.00;;;;;;;8.51;100.00;100485.91;5031186;28;20116;-71
2023/03/23 01:15:05;;;;;;;10.00;7.32;;;;;;;8.51;100.00;100495.28;5030740;28;20510;-71
2023/03/23 01:17:31;;;;;;;11.93;7.15;;;;;;;8.41;100.00;100489.72;5030564;28;20040;-71
2023/03/23 01:19:56;;;;;;;13.07;7.00;;;;;;;8.45;100.00;100490.72;5030489;28;20021;-71
2023/03/23 01:22:22;;;;;;;11.43;6.93;;;;;;;8.40;100.00;100481.94;5029695;28;20041;-74
2023/03/23 01:24:47;;;;;;;9.27;6.35;;;;;;;8.43;100.00;100482.06;5024633;28;20026;-73
2023/03/23 01:27:13;;;;;;;9.55;6.65;;;;;;;8.37;100.00;100492.06;5021948;28;20034;-72
2023/03/23 01:29:38;;;;;;;11.60;6.97;;;;;;;8.18;100.00;100460.34;5028954;28;20395;-72
2023/03/23 01:32:03;;;;;;;12.00;7.63;;;;;;;8.30;100.00;100480.63;5030462;28;20037;-72
2023/03/23 01:34:29;;;;;;;10.35;6.57;;;;;;;8.39;100.00;100493.03;5030183;28;20021;-72
2023/03/23 01:36:55;;;;;;;11.30;6.97;;;;;;;8.38;100.00;100491.25;5029898;28;20446;-71
2023/03/23 01:39:20;;;;;;;11.23;7.50;;;;;;;8.27;100.00;100493.31;5030608;28;20026;-72
2023/03/23 01:41:46;;;;;;;11.43;6.97;;;;;;;8.28;100.00;100491.66;5030311;28;20108;-71
2023/03/23 01:44:55;;;;;;;11.40;7.40;;;;;;;8.32;100.00;100499.56;5030188;28;20130;-72
2023/03/23 01:47:23;;;;;;;13.48;8.30;;;;;;;8.40;100.00;100489.66;5029296;28;20136;-72
2023/03/23 01:49:50;;;;;;;9.60;6.88;;;;;;;8.26;100.00;100464.16;5030378;28;20128;-71
2023/03/23 01:52:26;;;;;;;9.45;6.70;;;;;;;8.35;100.00;100484.28;5030263;28;20112;-72
2023/03/23 01:54:55;;;;;;;8.88;5.80;;;;;;;8.41;100.00;100489.72;5030545;28;20026;-72
2023/03/23 01:57:23;;;;;;;9.82;6.30;;;;;;;8.37;100.00;100492.06;5030323;28;20475;-71
2023/03/23 01:59:52;;;;;;;10.05;6.15;;;;;;;8.36;100.00;100477.44;5029670;28;20026;-72
2023/03/23 02:02:20;;;;;;;8.10;5.57;;;;;;;8.42;100.00;100488.00;5029392;28;20503;-72
2023/03/23 02:04:46;;;;;;;10.00;6.93;;;;;;;8.20;100.00;100463.88;5030189;28;20030;-71
2023/03/23 02:07:13;;;;;;;10.80;6.60;;;;;;;8.06;100.00;100447.81;5029969;28;20033;-71
2023/03/23 02:09:39;;;;;;;9.05;6.25;;;;;;;8.37;100.00;100494.63;5029852;28;20059;-71
2023/03/23 02:12:05;;;;;;;9.18;6.35;;;;;;;8.39;100.00;100505.88;5030360;28;20048;-71
2023/03/23 02:14:31;;;;;;;8.68;6.13;;;;;;;8.39;100.00;100486.16;5029495;28;20518;-71
2023/03/23 02:17:08;;;;;;;9.50;7.03;;;;;;;8.54;100.00;100496.31;5029992;28;20025;-72
2023/03/23 02:19:52;;;;;;;10.88;7.38;;;;;;;8.52;100.00;100497.97;5029486;28;20086;-72
2023/03/23 02:22:26;;;;;;;9.82;6.85;;;;;;;8.56;100.00;100497.28;5028602;28;20025;-72
2023/03/23 02:24:58;;;;;;;10.90;7.40;;;;;;;8.63;100.00;100502.69;5029254;28;20029;-72
2023/03/23 02:28:01;;;;;;;11.00;7.05;;;;;;;8.70;100.00;100502.19;5029567;28;20546;-72
2023/03/23 02:30:36;;;;;;;11.32;8.07;;;;;;;8.67;100.00;100500.34;5030301;28;20037;-72
2023/03/23 02:33:13;;;;;;;11.15;8.02;;;;;;;8.64;100.00;100507.03;5028723;28;20060;-71
2023/03/23 02:35:50;;;;;;;10.60;7.55;;;;;;;8.63;100.00;100518.16;5030792;28;20179;-71
2023/03/23 02:38:21;;;;;;;10.73;7.85;;;;;;;8.33;100.00;100480.75;5033764;28;20031;-71
2023/03/23 02:40:49;;;;;;;12.50;8.07;;;;;;;8.42;100.00;100512.06;5033556;28;20518;-71
2023/03/23 02:43:19;;;;;;;11.77;7.53;;;;;;;8.40;100.00;100512.78;5020531;28;20026;-71
2023/03/23 02:45:45;;;;;;;12.13;9.15;;;;;;;8.33;100.00;100508.16;5032853;28;20084;-71
2023/03/23 02:48:15;;;;;;;14.05;8.88;;;;;;;8.30;100.00;100513.16;5033796;28;20025;-71
2023/03/23 02:50:44;;;;;;;14.85;9.18;;;;;;;8.33;100.00;100506.47;5033513;28;20116;-71
2023/03/23 02:53:13;;;;;;;12.52;8.70;;;;;;;8.39;100.00;100519.63;5033777;28;20030;-71
2023/03/23 02:55:42;;;;;;;13.43;8.82;;;;;;;8.38;100.00;100504.97;5033357;28;20051;-71
2023/03/23 02:58:09;;;;;;;12.15;8.43;;;;;;;8.45;100.00;100523.28;5032901;28;20029;-71
2023/03/23 03:00:36;;;;;;;12.75;7.95;;;;;;;8.45;100.00;100519.03;5033465;28;20040;-71
2023/03/23 03:03:03;;;;;;;12.00;8.00;;;;;;;8.45;100.00;100521.59;5033451;28;20494;-71
2023/03/23 03:05:47;;;;;;;11.68;7.95;;;;;;;8.41;100.00;100519.69;5033088;28;20026;-71
2023/03/23 03:08:23;;;;;;;13.55;8.45;;;;;;;8.45;100.00;100528.41;5032773;28;20041;-71
2023/03/23 03:10:58;;;;;;;12.55;9.23;;;;;;;8.40;100.00;100523.97;5033553;28;20446;-71
2023/03/23 03:13:35;;;;;;;12.38;8.57;;;;;;;8.24;100.00;100513.75;5032999;28;20047;-71
2023/03/23 03:16:05;;;;;;;11.88;8.63;;;;;;;8.07;100.00;100511.28;5033147;28;20022;-71
2023/03/23 03:18:39;;;;;;;12.23;8.73;;;;;;;8.10;100.00;100508.84;5033162;28;20032;-71
2023/03/23 03:21:10;;;;;;;15.05;9.27;;;;;;;8.13;100.00;100507.25;5032636;28;20115;-71
2023/03/23 03:23:37;;;;;;;12.70;9.40;;;;;;;8.21;100.00;100531.59;5032834;28;20025;-71
2023/03/23 03:26:05;;;;;;;12.70;9.25;;;;;;;8.19;100.00;100528.97;5033271;28;20036;-71
2023/03/23 03:28:32;;;;;;;13.23;9.00;;;;;;;8.14;100.00;100533.03;5032815;28;20038;-71
2023/03/23 03:31:01;;;;;;;11.88;8.60;;;;;;;8.17;100.00;100529.72;5033047;28;20517;-71
2023/03/23 03:33:30;;;;;;;15.32;9.02;;;;;;;8.12;100.00;100526.91;5032432;28;20092;-72
2023/03/23 03:35:58;;;;;;;11.85;8.80;;;;;;;8.19;100.00;100528.97;5033204;28;20033;-71
2023/03/23 03:38:24;;;;;;;12.77;8.82;;;;;;;8.18;100.00;100531.47;5032657;28;20037;-71
2023/03/23 03:40:51;;;;;;;14.65;10.35;;;;;;;8.13;100.00;100527.81;5032562;28;20022;-72
2023/03/23 03:43:17;;;;;;;12.35;8.95;;;;;;;8.18;100.00;100529.78;5032650;28;20022;-71
2023/03/23 03:45:43;;;;;;;11.75;8.52;;;;;;;8.15;100.00;100542.50;5032303;28;20057;-71
2023/03/23 03:48:08;;;;;;;12.80;9.32;;;;;;;8.08;100.00;100525.88;5031210;28;20492;-71
2023/03/23 03:50:34;;;;;;;12.93;9.10;;;;;;;8.15;100.00;100542.50;5032739;28;20789;-71
2023/03/23 03:52:59;;;;;;;14.13;9.75;;;;;;;8.04;100.00;100523.13;5032020;28;20028;-71
2023/03/23 03:55:27;;;;;;;12.68;8.38;;;;;;;7.90;100.00;100500.19;5032256;28;20120;-72
2023/03/23 03:57:54;;;;;;;13.10;9.70;;;;;;;8.03;100.00;100521.34;5032083;28;20037;-70
2023/03/23 04:00:20;;;;;;;13.00;8.63;;;;;;;8.16;100.00;100544.28;5031411;28;20484;-71
2023/03/23 04:02:51;;;;;;;11.45;8.52;;;;;;;8.18;100.00;100541.75;5032017;28;20038;-71
2023/03/23 04:05:18;;;;;;;13.68;9.18;;;;;;;8.18;100.00;100532.34;5031998;28;20032;-71
2023/03/23 04:07:45;;;;;;;11.55;8.10;;;;;;;8.27;100.00;100537.03;5032173;28;20098;-71
2023/03/23 04:10:12;;;;;;;12.63;9.23;;;;;;;8.34;100.00;100540.81;5031644;28;20025;-71
2023/03/23 04:12:38;;;;;;;14.20;8.77;;;;;;;8.41;100.00;100541.16;5031953;28;20024;-71
2023/03/23 04:15:05;;;;;;;12.00;9.05;;;;;;;8.46;100.00;100543.06;5031646;28;20391;-71
2023/03/23 04:17:30;;;;;;;12.13;8.80;;;;;;;8.36;100.00;100532.34;5031830;28;20529;-71
2023/03/23 04:19:56;;;;;;;10.98;8.40;;;;;;;8.48;100.00;100544.06;5031786;28;20072;-71
2023/03/23 04:22:29;;;;;;;12.98;9.13;;;;;;;8.51;100.00;100550.22;5032091;28;20053;-72
2023/03/23 04:24:58;;;;;;;12.82;9.02;;;;;;;8.55;100.00;100551.25;5031673;28;20029;-71
2023/03/23 04:27:27;;;;;;;13.93;9.18;;;;;;;8.61;100.00;100550.63;5030838;28;20483;-70
2023/03/23 04:29:53;;;;;;;12.63;8.35;;;;;;;8.62;100.00;100555.84;5030981;28;20033;-71
2023/03/23 04:32:19;;;;;;;13.65;8.90;;;;;;;8.59;100.00;100548.00;5030910;28;20108;-70
2023/03/23 04:34:44;;;;;;;13.18;9.35;;;;;;;8.61;100.00;100551.53;5030315;28;20115;-70
2023/03/23 04:37:10;;;;;;;11.80;9.05;;;;;;;8.67;100.00;100556.97;5031273;28;20117;-73
2023/03/23 04:39:35;;;;;;;16.65;10.02;;;;;;;8.68;100.00;100547.53;5029581;28;20479;-73
2023/03/23 04:42:01;;;;;;;11.95;9.02;;;;;;;8.68;100.00;100556.13;5030499;28;20033;-71
2023/03/23 04:44:27;;;;;;;13.65;10.10;;;;;;;8.63;100.00;100556.75;5027626;28;20457;-70
2023/03/23 04:46:53;;;;;;;13.13;9.35;;;;;;;8.44;100.00;100561.00;5028969;28;20037;-70
2023/03/23 04:49:21;;;;;;;12.35;8.48;;;;;;;8.22;100.00;100543.66;5030427;28;20414;-71
2023/03/23 04:51:48;;;;;;;14.70;9.75;;;;;;;8.04;100.00;100517.97;5031260;28;20026;-71
2023/03/23 04:54:14;;;;;;;12.52;9.18;;;;;;;8.34;100.00;100566.53;5030295;28;20446;-71
2023/03/23 04:56:41;;;;;;;15.55;10.25;;;;;;;8.34;100.00;100557.09;5030521;28;20135;-71
2023/03/23 04:59:06;;;;;;;13.23;9.90;;;;;;;8.42;100.00;100568.66;5029884;28;20366;-70
2023/03/23 05:01:33;;;;;;;13.52;9.63;;;;;;;8.49;100.00;100577.56;5030975;28;20033;-70
2023/03/23 05:04:00;;;;;;;15.52;9.85;;;;;;;8.50;100.00;100570.72;5031181;28;20029;-71
2023/03/23 05:06:25;;;;;;;13.98;9.73;;;;;;;8.44;100.00;100573.88;5030936;28;20112;-71
2023/03/23 05:08:51;;;;;;;16.85;9.63;;;;;;;8.51;100.00;100578.53;5030977;28;20464;-70
2023/03/23 05:11:16;;;;;;;13.13;9.43;;;;;;;8.53;100.00;100578.59;5030723;28;20032;-70
2023/03/23 05:13:43;;;;;;;11.35;8.65;;;;;;;8.62;100.00;100585.84;5030396;28;20487;-70
2023/03/23 05:16:09;;;;;;;12.27;9.07;;;;;;;8.62;100.00;100578.13;5012252;28;20190;-70
2023/03/23 05:18:35;;;;;;;12.98;9.10;;;;;;;8.70;100.00;100579.38;5030707;28;20487;-70
2023/03/23 05:21:02;;;;;;;13.52;9.63;;;;;;;8.70;100.00;100590.56;5029292;28;20542;-70
2023/03/23 05:23:30;;;;;;;13.05;10.13;;;;;;;8.71;100.00;100578.56;5030958;28;20037;-71
2023/03/23 05:26:00;;;;;;;14.45;10.30;;;;;;;8.74;100.00;100596.72;5030205;28;20036;-70
2023/03/23 05:28:27;;;;;;;17.23;10.18;;;;;;;8.71;100.00;100592.31;5030741;28;20132;-70
2023/03/23 05:30:53;;;;;;;15.25;9.90;;;;;;;8.71;100.00;100601.72;5030273;28;20450;-70
2023/03/23 05:33:19;;;;;;;16.20;9.60;;;;;;;8.53;100.00;100576.88;5030792;28;20034;-70
2023/03/23 05:35:47;;;;;;;14.48;9.57;;;;;;;8.59;100.00;100581.47;5030507;28;20060;-70
2023/03/23 05:38:14;;;;;;;19.98;10.55;;;;;;;8.69;100.00;100586.22;5030313;28;20041;-70
2023/03/23 05:40:41;;;;;;;18.17;9.55;;;;;;;8.80;100.00;100601.25;5029820;28;20034;-70
2023/03/23 05:43:07;;;;;;;16.20;9.40;;;;;;;8.29;100.00;100517.44;5030653;28;20033;-70
2023/03/23 05:45:33;;;;;;;17.02;8.52;;;;;;;8.57;100.00;100563.38;5028873;28;20487;-71
2023/03/23 05:47:59;;;;;;;13.05;8.93;;;;;;;8.85;100.00;100594.66;5028837;28;20058;-70
2023/03/23 05:50:25;;;;;;;11.23;8.25;;;;;;;8.88;100.00;100600.84;5029555;28;20021;-70
2023/03/23 05:52:51;;;;;;;11.57;8.35;;;;;;;8.64;100.00;100553.38;5030093;28;20082;-70
2023/03/23 05:55:16;;;;;;;14.93;8.88;;;;;;;8.99;100.00;100609.03;5024442;28;20044;-70
2023/03/23 05:57:42;;;;;;;13.18;8.85;;;;;;;9.03;100.00;100613.53;5030336;28;20033;-71
2023/03/23 06:00:11;;;;;;;22.00;10.05;;;;;;;9.13;100.00;100619.06;5029891;28;20029;-70
2023/03/23 06:02:36;;;;;;;18.08;9.00;;;;;;;9.13;100.00;100609.66;5030251;28;20030;-70
2023/03/23 06:05:02;;;;;;;14.45;8.57;;;;;;;9.09;100.00;100614.63;5029752;28;20403;-70
2023/03/23 06:07:27;;;;;;;14.32;8.52;;;;;;;9.13;100.00;100619.06;5030066;28;20040;-70
2023/03/23 06:10:14;;;;;;;12.40;8.68;;;;;;;9.08;100.00;100608.56;5025979;28;20128;-70
2023/03/23 06:12:40;;;;;;;12.68;8.73;;;;;;;9.06;100.00;100607.63;5027385;28;20034;-71
2023/03/23 06:15:07;;;;;;;17.08;9.23;;;;;;;9.12;100.00;100617.31;5026427;28;20048;-71
2023/03/23 06:17:33;;;;;;;13.77;9.10;;;;;;;9.07;100.00;100606.78;5010900;28;20033;-71
2023/03/23 06:19:59;;;;;;;13.00;8.38;;;;;;;9.20;100.00;100619.41;5027076;28;20577;-72
2023/03/23 06:22:25;;;;;;;13.65;8.60;;;;;;;9.09;100.00;100606.88;5027114;28;20120;-72
2023/03/23 06:24:50;;;;;;;17.73;9.27;;;;;;;9.18;100.00;100627.88;5027178;28;20553;-73
2023/03/23 06:27:17;;;;;;;15.38;9.07;;;;;;;9.19;100.00;100620.22;5027401;28;20065;-73
2023/03/23 06:29:43;;;;;;;20.05;9.35;;;;;;;9.28;100.00;100631.75;5027244;28;20029;-73
2023/03/23 06:32:12;;;;;;;13.55;8.15;;;;;;;9.26;100.00;100633.38;5027392;28;20495;-74
2023/03/23 06:34:40;;;;;;;17.38;8.55;;;;;;;9.19;100.00;100627.09;5026673;28;20033;-74
2023/03/23 06:37:06;;;;;;;18.95;9.75;;;;;;;9.27;100.00;100640.31;5010547;28;20025;-74
2023/03/23 06:39:31;;;;;;;18.20;9.38;;;;;;;9.19;100.00;100625.38;5027040;28;20111;-75
2023/03/23 06:41:59;;;;;;;15.52;8.70;;;;;;;9.30;100.00;100646.47;5029237;28;20036;-75
2023/03/23 06:44:24;;;;;;;16.38;9.07;;;;;;;9.08;100.00;100603.41;5030058;28;20033;-74
2023/03/23 06:46:50;;;;;;;12.57;8.18;;;;;;;9.29;100.00;100638.69;5029591;28;20022;-74
2023/03/23 06:49:16;;;;;;;9.88;7.45;;;;;;;9.28;100.00;100649.81;5029622;28;20391;-73
2023/03/23 06:51:41;;;;;;;8.75;6.47;;;;;;;9.24;100.00;100656.50;5029609;28;20037;-74
2023/03/23 06:54:07;;;;;;;11.77;7.30;;;;;;;9.18;100.00;100645.91;5029248;28;20553;-73
2023/03/23 06:56:32;;;;;;;10.65;7.53;;;;;;;9.31;100.00;100662.81;5030615;28;20029;-71
2023/03/23 06:58:58;;;;;;;11.35;6.43;;;;;;;9.37;100.00;100669.13;5021936;28;20462;-71
2023/03/23 07:01:23;;;;;;;13.10;6.43;;;;;;;9.45;100.00;100671.19;5029080;28;20060;-72
2023/03/23 07:03:49;;;;;;;12.40;6.07;;;;;;;9.48;100.00;100654.16;5029207;28;20034;-72
2023/03/23 07:06:15;;;;;;;6.80;5.40;;;;;;;9.47;100.00;100647.25;5010307;28;20037;-72
2023/03/23 07:08:40;;;;;;;10.15;6.05;;;;;;;9.51;100.00;100662.00;5029708;28;20029;-71
2023/03/23 07:11:06;;;;;;;9.52;6.07;;;;;;;9.63;100.00;100677.16;5029325;28;20026;-72
2023/03/23 07:13:33;;;;;;;9.55;6.53;;;;;;;9.66;100.00;100677.28;5029451;28;20056;-72
2023/03/23 07:15:59;;;;;;;9.27;6.13;;;;;;;9.71;100.00;100677.47;5029233;28;20542;-72
2023/03/23 07:18:25;;;;;;;10.25;6.70;;;;;;;9.65;100.00;100654.88;5028914;28;20034;-73
2023/03/23 07:20:51;;;;;;;11.95;7.40;;;;;;;9.69;100.00;100656.81;5028920;28;20123;-73
2023/03/23 07:23:18;;;;;;;10.05;6.70;;;;;;;9.75;100.00;100671.63;5031100;28;20029;-73
2023/03/23 07:25:44;;;;;;;7.57;5.97;;;;;;;9.71;100.00;100669.75;5033068;28;20044;-73
2023/03/23 07:28:10;;;;;;;8.20;5.60;;;;;;;9.78;100.00;100676.03;5033154;28;20040;-74
2023/03/23 07:30:36;;;;;;;8.52;6.38;;;;;;;9.81;100.00;100673.63;5031482;28;20112;-73
2023/03/23 07:33:05;;;;;;;11.68;6.95;;;;;;;9.82;100.00;100673.66;5021040;28;20034;-73
2023/03/23 07:35:31;;;;;;;;;;;;;;;9.87;100.00;100677.31;5033340;28;20025;-73
2023/03/23 07:37:56;;;;;;;10.48;6.85;;;;;;;9.63;100.00;100651.38;5032759;28;20291;-74
2023/03/23 07:40:22;;;;;;;10.13;6.90;;;;;;;9.75;100.00;100671.63;5032712;28;20069;-73
2023/03/23 07:42:53;;;;;;;12.02;7.38;;;;;;;9.79;100.00;100678.69;5032671;28;20093;-72
2023/03/23 07:45:19;;;;;;;10.35;7.50;;;;;;;9.76;100.00;100670.81;5032370;28;20026;-73
2023/03/23 07:47:44;;;;;;;9.80;7.40;;;;;;;9.84;100.00;100684.94;5032270;28;20033;-73
2023/03/23 07:50:11;;;;;;;10.18;7.85;;;;;;;9.80;100.00;100688.19;5031708;28;20029;-73
2023/03/23 07:52:37;;;;;;;11.73;9.60;;;;;;;9.74;100.00;100669.00;5032159;28;20033;-72
2023/03/23 07:55:05;;;;;;;10.00;8.32;;;;;;;9.83;100.00;100688.34;5031637;28;20041;-72
2023/03/23 07:57:30;;;;;;;12.10;9.02;;;;;;;9.85;100.00;100691.84;5032342;28;20040;-72
2023/03/23 07:59:57;;;;;;;11.23;7.78;;;;;;;9.76;100.00;100693.13;5032239;28;20423;-72
2023/03/23 08:02:23;;;;;;;10.52;7.85;;;;;;;9.81;100.00;100697.69;5031145;28;20025;-72
2023/03/23 08:04:49;;;;;;;15.60;10.82;;;;;;;9.74;100.00;100679.31;5032035;28;20036;-73
2023/03/23 08:07:16;;;;;;;15.90;10.82;;;;;;;9.82;100.00;100699.47;5029377;28;20176;-73
2023/03/23 08:09:42;;;;;;;11.70;8.98;;;;;;;9.79;100.00;100689.00;5031929;28;20175;-73
2023/03/23 08:12:07;;;;;;;10.57;8.88;;;;;;;9.86;100.00;100696.19;5031771;28;20033;-73
2023/03/23 08:14:33;;;;;;;13.30;11.38;;;;;;;9.74;100.00;100664.72;5031727;28;20033;-73
2023/03/23 08:16:58;;;;;;;13.02;10.40;;;;;;;9.99;100.00;100696.72;5031614;28;20029;-73
2023/03/23 08:19:24;;;;;;;14.73;11.50;;;;;;;9.97;100.00;100699.25;5031877;28;20038;-74
2023/03/23 08:21:50;;;;;;;13.25;11.02;;;;;;;9.96;100.00;100701.75;5031832;28;20041;-73
2023/03/23 08:24:16;;;;;;;13.32;10.82;;;;;;;10.00;100.00;100698.50;5031921;28;20037;-73
2023/03/23 08:26:41;;;;;;;16.08;11.55;;;;;;;9.87;100.00;100671.31;5031596;28;20025;-73
2023/03/23 08:29:08;;;;;;;15.60;12.10;;;;;;;10.08;100.00;100691.97;5031516;28;20073;-73
2023/03/23 08:31:35;;;;;;;13.80;11.88;;;;;;;10.15;100.00;100688.81;5045302;28;20501;-73
2023/03/23 08:34:02;;;;;;;13.75;10.55;;;;;;;9.96;100.00;100655.34;5029098;28;20029;-73
2023/03/23 08:36:28;;;;;;;14.23;11.18;;;;;;;10.03;100.00;100667.66;5030216;28;20033;-72
2023/03/23 08:38:53;;;;;;;12.93;10.57;;;;;;;10.32;100.00;100698.97;5029017;28;20039;-73
2023/03/23 08:41:19;;;;;;;13.13;10.38;;;;;;;10.36;100.00;100706.06;5029475;28;20477;-73
2023/03/23 08:43:46;;;;;;;12.88;9.63;;;;;;;10.41;100.00;100691.63;5029340;28;20048;-73
2023/03/23 08:46:12;;;;;;;14.05;10.43;;;;;;;10.18;100.00;100660.56;5031746;28;20116;-73
2023/03/23 08:48:38;;;;;;;13.48;11.15;;;;;;;10.51;100.00;100709.25;5031559;28;20499;-72
2023/03/23 08:51:06;;;;;;;16.58;12.07;;;;;;;10.68;100.00;100707.38;5031830;28;20040;-73
2023/03/23 08:53:32;;;;;;;14.15;11.15;;;;;;;10.78;100.00;100700.88;5031383;28;20029;-73
2023/03/23 08:56:09;;;;;;;11.45;9.38;;;;;;;10.77;100.00;100693.94;5031361;28;20112;-73
2023/03/23 08:58:35;;;;;;;10.85;8.85;;;;;;;10.88;100.00;100703.81;5031235;28;20033;-72
2023/03/23 09:01:02;;;;;;;13.32;9.05;;;;;;;10.91;100.00;100707.38;5031643;28;20026;-72
2023/03/23 09:03:28;;;;;;;11.32;9.50;;;;;;;10.88;100.00;100703.81;5031552;28;20022;-72
2023/03/23 09:05:53;;;;;;;9.80;7.90;;;;;;;10.85;100.00;100694.22;5030762;28;20045;-71
2023/03/23 09:08:39;;;;;;;13.13;8.70;;;;;;;10.95;100.00;100695.47;5047826;28;20461;-72
2023/03/23 09:11:08;;;;;;;12.50;8.73;;;;;;;10.96;100.00;100695.53;5048049;28;20162;-72
2023/03/23 09:13:35;;;;;;;11.13;7.57;;;;;;;11.04;100.00;100700.13;5048360;28;20045;-72
2023/03/23 09:16:01;;;;;;;10.27;7.93;;;;;;;11.12;100.00;100704.75;5048239;28;20031;-71
2023/03/23 09:18:27;;;;;;;9.60;8.40;;;;;;;11.25;100.00;100689.72;5048037;28;20029;-71
2023/03/23 09:20:54;;;;;;;12.00;9.20;;;;;;;11.37;100.00;100689.31;5034053;28;20112;-71
2023/03/23 09:23:20;;;;;;;9.73;7.90;;;;;;;11.45;100.00;100683.59;5048197;28;20143;-71
2023/03/23 09:25:46;;;;;;;11.23;8.55;;;;;;;11.55;100.00;100696.84;5048039;28;20549;-71
2023/03/23 09:28:12;;;;;;;11.32;9.32;;;;;;;11.35;100.00;100649.59;5047838;28;20046;-71
2023/03/23 09:30:40;;;;;;;11.52;8.85;;;;;;;11.52;100.00;100670.91;5048152;28;20403;-72
2023/03/23 09:33:07;;;;;;;10.70;8.63;;;;;;;11.71;100.00;100690.53;5048035;28;20134;-71
2023/03/23 09:35:35;;;;;;;9.30;8.18;;;;;;;11.83;100.00;100680.63;5048070;28;20041;-71
2023/03/23 09:38:01;;;;;;;8.35;5.40;;;;;;;11.61;100.00;100679.88;5048021;28;20025;-71
2023/03/23 09:40:32;;;;;;;7.63;6.15;;;;;;;11.60;100.00;100652.25;5048119;28;20102;-72
2023/03/23 09:43:28;;;;;;;9.85;6.75;;;;;;;11.99;100.00;100682.09;5047912;28;20044;-70
2023/03/23 09:46:08;;;;;;;10.30;7.13;;;;;;;12.08;100.00;100684.09;5039878;28;20033;-71
2023/03/23 09:48:56;;;;;;;5.32;4.22;;;;;;;12.07;100.00;100680.63;5029259;28;20033;-70
2023/03/23 09:51:42;;;;;;;5.18;3.95;;;;;;;12.00;100.00;100651.91;5028691;28;20041;-71
2023/03/23 09:54:29;;;;;;;7.32;4.95;;;;;;;12.35;100.00;100685.84;5026878;28;20033;-71
2023/03/23 09:56:57;;;;;;;5.50;4.05;;;;;;;12.50;100.00;100686.38;5030444;28;20407;-70
2023/03/23 09:59:41;;;;;;;5.90;4.30;;;;;;;12.71;100.00;100682.69;5030595;28;20030;-69
2023/03/23 10:02:26;;;;;;;6.18;3.58;;;;;;;12.94;100.00;100686.00;5030946;28;20021;-69
2023/03/23 10:04:55;;;;;;;5.18;4.05;;;;;;;13.07;100.00;100684.66;5030254;28;20549;-69
2023/03/23 10:07:25;;;;;;;5.78;4.40;;;;;;;13.22;100.00;100679.06;5029916;28;20033;-69
2023/03/23 10:10:03;;;;;;;5.43;4.43;;;;;;;13.07;100.00;100677.78;5030572;28;20049;-69
2023/03/23 10:12:48;;;;;;;5.35;3.58;;;;;;;12.89;100.00;100678.09;5030553;28;20044;-69
2023/03/23 10:15:19;;;;;;;7.88;4.85;;;;;;;12.92;100.00;100670.44;5030416;28;20104;-69
2023/03/23 10:17:59;;;;;;;6.35;3.55;;;;;;;12.60;100.00;100628.84;5030126;28;20041;-69
2023/03/23 10:20:58;;;;;;;5.20;3.80;;;;;;;12.74;100.00;100680.22;5030537;28;20462;-69
2023/03/23 10:23:39;;;;;;;5.75;3.75;;;;;;;12.64;100.00;100678.16;5030487;28;20041;-69
2023/03/23 10:26:29;;;;;;;8.02;4.55;;;;;;;12.65;100.00;100683.41;5030047;28;20041;-69
2023/03/23 10:29:00;;;;;;;7.05;4.82;;;;;;;12.67;100.00;100667.91;4930736;29;20048;-69
2023/03/23 10:31:34;;;;;;;10.52;5.45;;;;;;;12.60;100.00;100665.09;4930659;29;20058;-69
2023/03/23 10:34:08;;;;;;;8.90;4.90;;;;;;;12.23;100.00;100637.16;4930768;29;20187;-70
2023/03/23 10:36:57;;;;;;;8.25;4.75;;;;;;;12.53;100.00;100665.72;4930644;29;20119;-70
2023/03/23 10:39:27;;;;;;;7.30;4.55;;;;;;;12.04;100.00;100597.72;4892920;29;20044;-69
2023/03/23 10:41:53;;;;;;;;;;;;;;;12.49;100.00;100673.38;4893370;29;20088;-70
2023/03/23 10:44:25;;;;;;;13.27;5.20;;;;;;;12.44;100.00;100676.69;4892888;29;20390;-69
2023/03/23 10:47:04;;;;;;;6.53;4.72;;;;;;;12.26;100.00;100639.81;4876871;29;20036;-69
2023/03/23 10:50:10;;;;;;;7.88;4.80;;;;;;;12.40;100.00;100676.53;4892785;29;20392;-70
2023/03/23 10:52:38;;;;;;;5.57;4.25;;;;;;;12.47;100.00;100675.91;4874119;29;20037;-69
2023/03/23 10:55:15;;;;;;;6.78;4.25;;;;;;;12.47;100.00;100673.31;4874067;29;20048;-70
2023/03/23 10:57:46;;;;;;;7.05;4.15;;;;;;;12.50;100.00;100677.69;4876620;29;20048;-70
2023/03/23 11:00:21;;;;;;;8.23;4.45;;;;;;;12.36;100.00;100677.25;4877589;29;20048;-69
2023/03/23 11:02:56;;;;;;;6.90;4.53;;;;;;;12.38;100.00;100681.66;4877495;29;20467;-69
2023/03/23 11:05:39;;;;;;;6.10;4.28;;;;;;;12.20;100.00;100637.03;4899392;28;20053;-69
2023/03/23 11:08:21;;;;;;;5.00;3.70;;;;;;;12.20;100.00;100645.69;4972245;28;20039;-70
2023/03/23 11:10:58;;;;;;;6.53;4.40;;;;;;;12.41;100.00;100675.69;4972505;28;20053;-69
2023/03/23 11:13:30;;;;;;;7.00;4.43;;;;;;;12.45;100.00;100675.00;4940108;28;20113;-69
2023/03/23 11:15:55;;;;;;;6.13;4.30;;;;;;;12.04;100.00;100602.91;4977448;28;20042;-69
2023/03/23 11:18:24;;;;;;;6.32;4.22;;;;;;;12.45;100.00;100669.81;4991719;28;20513;-70
2023/03/23 11:20:57;;;;;;;6.95;4.60;;;;;;;12.41;100.00;100666.22;4991493;28;20541;-69
2023/03/23 11:23:28;;;;;;;9.13;4.32;;;;;;;12.40;100.00;100673.94;4991659;28;20115;-70
2023/03/23 11:25:58;;;;;;;6.82;4.78;;;;;;;12.15;100.00;100626.56;5002120;28;20049;-70